sensor_id;sensor_type;location;lat;lon;timestamp;P1;durP1;ratioP1;P2;durP2;ratioP2
14100;SDS011;7127;49.372;8.166;2023-03-05T00:00:45;5.37;;;3.60;;
14100;SDS011;7127;49.372;8.166;2023-03-05T00:03:12;5.20;;;3.60;;
14100;SDS011;7127;49.372;8.166;2023-03-05T00:05:39;4.40;;;3.70;;
14100;SDS011;7127;49.372;8.166;2023-03-05T00:08:06;4.27;;;3.33;;
14100;SDS011;7127;49.372;8.166;2023-03-05T00:10:33;5.40;;;3.33;;
14100;SDS011;7127;49.372;8.166;2023-03-05T00:12:59;5.10;;;3.50;;
14100;SDS011;7127;49.372;8.166;2023-03-05T00:15:26;4.93;;;3.10;;
14100;SDS011;7127;49.372;8.166;2023-03-05T00:17:54;6.60;;;4.07;;
14100;SDS011;7127;49.372;8.166;2023-03-05T00:20:21;5.03;;;3.10;;
14100;SDS011;7127;49.372;8.166;2023-03-05T00:22:48;5.30;;;3.73;;
14100;SDS011;7127;49.372;8.166;2023-03-05T00:25:15;6.37;;;3.83;;
14100;SDS011;7127;49.372;8.166;2023-03-05T00:27:42;5.60;;;3.83;;
14100;SDS011;7127;49.372;8.166;2023-03-05T00:30:09;4.87;;;3.20;;
14100;SDS011;7127;49.372;8.166;2023-03-05T00:32:37;4.10;;;3.17;;
14100;SDS011;7127;49.372;8.166;2023-03-05T00:35:06;5.73;;;3.77;;
14100;SDS011;7127;49.372;8.166;2023-03-05T00:37:33;4.80;;;3.67;;
14100;SDS011;7127;49.372;8.166;2023-03-05T00:40:00;3.57;;;3.00;;
14100;SDS011;7127;49.372;8.166;2023-03-05T00:42:27;6.50;;;3.40;;
14100;SDS011;7127;49.372;8.166;2023-03-05T00:44:53;4.73;;;3.50;;
14100;SDS011;7127;49.372;8.166;2023-03-05T00:47:20;4.13;;;3.23;;
14100;SDS011;7127;49.372;8.166;2023-03-05T00:49:47;4.13;;;3.50;;
14100;SDS011;7127;49.372;8.166;2023-03-05T00:52:15;4.83;;;3.13;;
14100;SDS011;7127;49.372;8.166;2023-03-05T00:54:42;4.27;;;3.53;;
14100;SDS011;7127;49.372;8.166;2023-03-05T00:57:09;6.07;;;3.73;;
14100;SDS011;7127;49.372;8.166;2023-03-05T00:59:36;4.17;;;3.20;;
14100;SDS011;7127;49.372;8.166;2023-03-05T01:02:02;4.27;;;3.53;;
14100;SDS011;7127;49.372;8.166;2023-03-05T01:04:29;4.73;;;4.20;;
14100;SDS011;7127;49.372;8.166;2023-03-05T01:06:56;5.20;;;3.97;;
14100;SDS011;7127;49.372;8.166;2023-03-05T01:09:25;4.20;;;3.50;;
14100;SDS011;7127;49.372;8.166;2023-03-05T01:11:52;5.47;;;3.97;;
14100;SDS011;7127;49.372;8.166;2023-03-05T01:14:19;4.73;;;3.77;;
14100;SDS011;7127;49.372;8.166;2023-03-05T01:16:46;4.73;;;3.73;;
14100;SDS011;7127;49.372;8.166;2023-03-05T01:19:14;6.40;;;3.97;;
14100;SDS011;7127;49.372;8.166;2023-03-05T01:21:41;5.07;;;3.60;;
14100;SDS011;7127;49.372;8.166;2023-03-05T01:24:08;5.50;;;3.80;;
14100;SDS011;7127;49.372;8.166;2023-03-05T01:26:36;5.10;;;3.67;;
14100;SDS011;7127;49.372;8.166;2023-03-05T01:29:03;6.87;;;3.73;;
14100;SDS011;7127;49.372;8.166;2023-03-05T01:31:30;4.30;;;3.47;;
14100;SDS011;7127;49.372;8.166;2023-03-05T01:33:57;3.37;;;2.97;;
14100;SDS011;7127;49.372;8.166;2023-03-05T01:36:24;4.63;;;3.40;;
14100;SDS011;7127;49.372;8.166;2023-03-05T01:38:51;4.23;;;3.20;;
14100;SDS011;7127;49.372;8.166;2023-03-05T01:41:18;4.90;;;3.53;;
14100;SDS011;7127;49.372;8.166;2023-03-05T01:43:47;4.03;;;3.37;;
14100;SDS011;7127;49.372;8.166;2023-03-05T01:46:21;4.30;;;3.70;;
14100;SDS011;7127;49.372;8.166;2023-03-05T01:48:52;5.70;;;3.73;;
14100;SDS011;7127;49.372;8.166;2023-03-05T01:51:21;4.93;;;4.07;;
14100;SDS011;7127;49.372;8.166;2023-03-05T01:53:52;4.17;;;3.40;;
14100;SDS011;7127;49.372;8.166;2023-03-05T01:56:22;4.27;;;3.37;;
14100;SDS011;7127;49.372;8.166;2023-03-05T01:58:51;5.00;;;3.50;;
14100;SDS011;7127;49.372;8.166;2023-03-05T02:01:21;4.23;;;3.07;;
14100;SDS011;7127;49.372;8.166;2023-03-05T02:03:48;4.67;;;3.63;;
14100;SDS011;7127;49.372;8.166;2023-03-05T02:06:15;5.33;;;4.10;;
14100;SDS011;7127;49.372;8.166;2023-03-05T02:08:42;4.33;;;3.70;;
14100;SDS011;7127;49.372;8.166;2023-03-05T02:11:09;4.53;;;3.57;;
14100;SDS011;7127;49.372;8.166;2023-03-05T02:13:36;4.63;;;4.00;;
14100;SDS011;7127;49.372;8.166;2023-03-05T02:16:06;6.47;;;4.40;;
14100;SDS011;7127;49.372;8.166;2023-03-05T02:18:33;5.20;;;3.60;;
14100;SDS011;7127;49.372;8.166;2023-03-05T02:21:02;5.33;;;3.50;;
14100;SDS011;7127;49.372;8.166;2023-03-05T02:23:31;6.27;;;4.20;;
14100;SDS011;7127;49.372;8.166;2023-03-05T02:26:00;4.67;;;3.53;;
14100;SDS011;7127;49.372;8.166;2023-03-05T02:28:29;5.67;;;4.47;;
14100;SDS011;7127;49.372;8.166;2023-03-05T02:30:59;5.57;;;4.10;;
14100;SDS011;7127;49.372;8.166;2023-03-05T02:33:26;4.40;;;3.83;;
14100;SDS011;7127;49.372;8.166;2023-03-05T02:35:53;4.80;;;3.63;;
14100;SDS011;7127;49.372;8.166;2023-03-05T02:38:21;5.17;;;3.70;;
14100;SDS011;7127;49.372;8.166;2023-03-05T02:40:48;4.60;;;3.63;;
14100;SDS011;7127;49.372;8.166;2023-03-05T02:43:14;3.77;;;3.17;;
14100;SDS011;7127;49.372;8.166;2023-03-05T02:45:41;4.73;;;3.50;;
14100;SDS011;7127;49.372;8.166;2023-03-05T02:48:08;3.93;;;3.17;;
14100;SDS011;7127;49.372;8.166;2023-03-05T02:50:35;4.03;;;3.40;;
14100;SDS011;7127;49.372;8.166;2023-03-05T02:53:03;4.60;;;3.27;;
14100;SDS011;7127;49.372;8.166;2023-03-05T02:55:32;4.77;;;3.93;;
14100;SDS011;7127;49.372;8.166;2023-03-05T02:57:59;7.40;;;4.97;;
14100;SDS011;7127;49.372;8.166;2023-03-05T03:00:26;5.03;;;3.60;;
14100;SDS011;7127;49.372;8.166;2023-03-05T03:02:53;5.93;;;3.93;;
14100;SDS011;7127;49.372;8.166;2023-03-05T03:05:20;5.20;;;4.17;;
14100;SDS011;7127;49.372;8.166;2023-03-05T03:07:47;4.60;;;3.83;;
14100;SDS011;7127;49.372;8.166;2023-03-05T03:10:14;5.47;;;4.30;;
14100;SDS011;7127;49.372;8.166;2023-03-05T03:12:43;6.63;;;4.53;;
14100;SDS011;7127;49.372;8.166;2023-03-05T03:15:11;5.87;;;4.20;;
14100;SDS011;7127;49.372;8.166;2023-03-05T03:17:40;6.03;;;4.47;;
14100;SDS011;7127;49.372;8.166;2023-03-05T03:20:08;4.93;;;3.77;;
14100;SDS011;7127;49.372;8.166;2023-03-05T03:22:38;4.60;;;3.67;;
14100;SDS011;7127;49.372;8.166;2023-03-05T03:25:05;4.80;;;3.70;;
14100;SDS011;7127;49.372;8.166;2023-03-05T03:27:33;5.40;;;4.23;;
14100;SDS011;7127;49.372;8.166;2023-03-05T03:30:01;5.70;;;4.77;;
14100;SDS011;7127;49.372;8.166;2023-03-05T03:32:29;4.70;;;4.20;;
14100;SDS011;7127;49.372;8.166;2023-03-05T03:34:57;5.60;;;4.47;;
14100;SDS011;7127;49.372;8.166;2023-03-05T03:37:24;5.07;;;4.50;;
14100;SDS011;7127;49.372;8.166;2023-03-05T03:39:51;5.30;;;4.80;;
14100;SDS011;7127;49.372;8.166;2023-03-05T03:42:18;5.50;;;3.97;;
14100;SDS011;7127;49.372;8.166;2023-03-05T03:44:46;5.53;;;4.27;;
14100;SDS011;7127;49.372;8.166;2023-03-05T03:47:15;5.83;;;4.80;;
14100;SDS011;7127;49.372;8.166;2023-03-05T03:49:42;6.73;;;5.20;;
14100;SDS011;7127;49.372;8.166;2023-03-05T03:52:09;5.20;;;4.50;;
14100;SDS011;7127;49.372;8.166;2023-03-05T03:54:35;4.97;;;4.47;;
14100;SDS011;7127;49.372;8.166;2023-03-05T03:57:02;5.80;;;4.50;;
14100;SDS011;7127;49.372;8.166;2023-03-05T03:59:29;7.60;;;4.37;;
14100;SDS011;7127;49.372;8.166;2023-03-05T04:01:56;6.70;;;4.90;;
14100;SDS011;7127;49.372;8.166;2023-03-05T04:04:25;6.10;;;4.77;;
14100;SDS011;7127;49.372;8.166;2023-03-05T04:06:53;8.07;;;4.97;;
14100;SDS011;7127;49.372;8.166;2023-03-05T04:09:20;5.80;;;4.63;;
14100;SDS011;7127;49.372;8.166;2023-03-05T04:11:46;6.57;;;4.37;;
14100;SDS011;7127;49.372;8.166;2023-03-05T04:14:13;5.87;;;4.50;;
14100;SDS011;7127;49.372;8.166;2023-03-05T04:16:40;6.57;;;5.10;;
14100;SDS011;7127;49.372;8.166;2023-03-05T04:19:07;5.57;;;4.63;;
14100;SDS011;7127;49.372;8.166;2023-03-05T04:21:35;5.87;;;4.40;;
14100;SDS011;7127;49.372;8.166;2023-03-05T04:24:02;7.30;;;5.13;;
14100;SDS011;7127;49.372;8.166;2023-03-05T04:26:29;6.00;;;4.23;;
14100;SDS011;7127;49.372;8.166;2023-03-05T04:28:56;6.83;;;4.97;;
14100;SDS011;7127;49.372;8.166;2023-03-05T04:31:23;6.33;;;4.60;;
14100;SDS011;7127;49.372;8.166;2023-03-05T04:33:50;5.50;;;3.93;;
14100;SDS011;7127;49.372;8.166;2023-03-05T04:36:17;4.67;;;3.80;;
14100;SDS011;7127;49.372;8.166;2023-03-05T04:38:45;6.83;;;5.27;;
14100;SDS011;7127;49.372;8.166;2023-03-05T04:41:12;6.67;;;4.83;;
14100;SDS011;7127;49.372;8.166;2023-03-05T04:43:39;6.47;;;4.60;;
14100;SDS011;7127;49.372;8.166;2023-03-05T04:46:05;5.13;;;4.37;;
14100;SDS011;7127;49.372;8.166;2023-03-05T04:48:32;4.83;;;3.83;;
14100;SDS011;7127;49.372;8.166;2023-03-05T04:50:59;4.47;;;3.83;;
14100;SDS011;7127;49.372;8.166;2023-03-05T04:53:26;5.57;;;3.87;;
14100;SDS011;7127;49.372;8.166;2023-03-05T04:55:54;5.03;;;4.03;;
14100;SDS011;7127;49.372;8.166;2023-03-05T04:58:22;5.50;;;4.30;;
14100;SDS011;7127;49.372;8.166;2023-03-05T05:00:49;5.33;;;3.90;;
14100;SDS011;7127;49.372;8.166;2023-03-05T05:03:16;4.30;;;3.90;;
14100;SDS011;7127;49.372;8.166;2023-03-05T05:05:43;6.13;;;4.40;;
14100;SDS011;7127;49.372;8.166;2023-03-05T05:08:10;4.70;;;3.97;;
14100;SDS011;7127;49.372;8.166;2023-03-05T05:10:37;5.40;;;4.07;;
14100;SDS011;7127;49.372;8.166;2023-03-05T05:13:05;6.03;;;4.07;;
14100;SDS011;7127;49.372;8.166;2023-03-05T05:15:32;7.57;;;5.80;;
14100;SDS011;7127;49.372;8.166;2023-03-05T05:17:59;7.10;;;4.97;;
14100;SDS011;7127;49.372;8.166;2023-03-05T05:20:26;5.57;;;4.30;;
14100;SDS011;7127;49.372;8.166;2023-03-05T05:22:53;4.07;;;3.67;;
14100;SDS011;7127;49.372;8.166;2023-03-05T05:25:20;7.10;;;5.03;;
14100;SDS011;7127;49.372;8.166;2023-03-05T05:27:46;5.37;;;4.37;;
14100;SDS011;7127;49.372;8.166;2023-03-05T05:30:15;6.40;;;5.03;;
14100;SDS011;7127;49.372;8.166;2023-03-05T05:32:42;6.27;;;4.67;;
14100;SDS011;7127;49.372;8.166;2023-03-05T05:35:09;4.37;;;3.90;;
14100;SDS011;7127;49.372;8.166;2023-03-05T05:37:36;5.43;;;4.20;;
14100;SDS011;7127;49.372;8.166;2023-03-05T05:40:03;4.37;;;3.77;;
14100;SDS011;7127;49.372;8.166;2023-03-05T05:42:32;4.63;;;3.80;;
14100;SDS011;7127;49.372;8.166;2023-03-05T05:44:59;4.20;;;3.60;;
14100;SDS011;7127;49.372;8.166;2023-03-05T05:47:28;5.60;;;4.07;;
14100;SDS011;7127;49.372;8.166;2023-03-05T05:49:55;6.50;;;4.90;;
14100;SDS011;7127;49.372;8.166;2023-03-05T05:52:22;5.77;;;4.03;;
14100;SDS011;7127;49.372;8.166;2023-03-05T05:54:49;6.57;;;4.13;;
14100;SDS011;7127;49.372;8.166;2023-03-05T05:57:16;4.50;;;4.10;;
14100;SDS011;7127;49.372;8.166;2023-03-05T05:59:43;5.97;;;4.53;;
14100;SDS011;7127;49.372;8.166;2023-03-05T06:02:10;5.77;;;3.93;;
14100;SDS011;7127;49.372;8.166;2023-03-05T06:04:38;5.37;;;4.37;;
14100;SDS011;7127;49.372;8.166;2023-03-05T06:07:05;5.57;;;4.30;;
14100;SDS011;7127;49.372;8.166;2023-03-05T06:09:33;5.53;;;4.27;;
14100;SDS011;7127;49.372;8.166;2023-03-05T06:12:00;4.87;;;3.90;;
14100;SDS011;7127;49.372;8.166;2023-03-05T06:14:27;5.07;;;4.07;;
14100;SDS011;7127;49.372;8.166;2023-03-05T06:16:54;5.00;;;4.23;;
14100;SDS011;7127;49.372;8.166;2023-03-05T06:19:20;5.37;;;4.30;;
14100;SDS011;7127;49.372;8.166;2023-03-05T06:21:49;5.43;;;4.30;;
14100;SDS011;7127;49.372;8.166;2023-03-05T06:24:15;5.27;;;3.70;;
14100;SDS011;7127;49.372;8.166;2023-03-05T06:26:43;4.90;;;3.73;;
14100;SDS011;7127;49.372;8.166;2023-03-05T06:29:12;4.70;;;3.17;;
14100;SDS011;7127;49.372;8.166;2023-03-05T06:31:39;4.17;;;3.20;;
14100;SDS011;7127;49.372;8.166;2023-03-05T06:34:06;4.17;;;3.00;;
14100;SDS011;7127;49.372;8.166;2023-03-05T06:36:33;3.70;;;2.70;;
14100;SDS011;7127;49.372;8.166;2023-03-05T06:39:01;3.33;;;3.00;;
14100;SDS011;7127;49.372;8.166;2023-03-05T06:41:29;3.93;;;3.20;;
14100;SDS011;7127;49.372;8.166;2023-03-05T06:43:58;4.67;;;3.30;;
14100;SDS011;7127;49.372;8.166;2023-03-05T06:46:26;4.83;;;3.07;;
14100;SDS011;7127;49.372;8.166;2023-03-05T06:48:55;4.43;;;3.20;;
14100;SDS011;7127;49.372;8.166;2023-03-05T06:51:24;6.07;;;4.30;;
14100;SDS011;7127;49.372;8.166;2023-03-05T06:53:53;5.17;;;3.83;;
14100;SDS011;7127;49.372;8.166;2023-03-05T06:56:22;4.57;;;3.37;;
14100;SDS011;7127;49.372;8.166;2023-03-05T06:58:50;3.33;;;2.93;;
14100;SDS011;7127;49.372;8.166;2023-03-05T07:01:18;5.07;;;3.90;;
14100;SDS011;7127;49.372;8.166;2023-03-05T07:03:47;6.83;;;3.33;;
14100;SDS011;7127;49.372;8.166;2023-03-05T07:06:15;3.67;;;2.80;;
14100;SDS011;7127;49.372;8.166;2023-03-05T07:08:42;5.90;;;3.50;;
14100;SDS011;7127;49.372;8.166;2023-03-05T07:11:09;3.47;;;2.97;;
14100;SDS011;7127;49.372;8.166;2023-03-05T07:13:39;4.87;;;3.10;;
14100;SDS011;7127;49.372;8.166;2023-03-05T07:16:08;4.37;;;3.57;;
14100;SDS011;7127;49.372;8.166;2023-03-05T07:18:38;4.23;;;3.23;;
14100;SDS011;7127;49.372;8.166;2023-03-05T07:21:06;4.37;;;3.60;;
14100;SDS011;7127;49.372;8.166;2023-03-05T07:23:33;4.67;;;3.03;;
14100;SDS011;7127;49.372;8.166;2023-03-05T07:26:01;4.97;;;3.20;;
14100;SDS011;7127;49.372;8.166;2023-03-05T07:28:29;3.23;;;2.83;;
14100;SDS011;7127;49.372;8.166;2023-03-05T07:30:58;4.10;;;2.70;;
14100;SDS011;7127;49.372;8.166;2023-03-05T07:33:26;3.70;;;2.77;;
14100;SDS011;7127;49.372;8.166;2023-03-05T07:35:54;3.63;;;3.03;;
14100;SDS011;7127;49.372;8.166;2023-03-05T07:38:21;4.47;;;2.73;;
14100;SDS011;7127;49.372;8.166;2023-03-05T07:40:48;3.40;;;2.50;;
14100;SDS011;7127;49.372;8.166;2023-03-05T07:43:15;3.80;;;2.60;;
14100;SDS011;7127;49.372;8.166;2023-03-05T07:45:43;3.27;;;2.60;;
14100;SDS011;7127;49.372;8.166;2023-03-05T07:48:13;2.67;;;2.17;;
14100;SDS011;7127;49.372;8.166;2023-03-05T07:50:41;3.20;;;2.27;;
14100;SDS011;7127;49.372;8.166;2023-03-05T07:53:09;3.20;;;2.33;;
14100;SDS011;7127;49.372;8.166;2023-03-05T07:55:40;2.93;;;2.40;;
14100;SDS011;7127;49.372;8.166;2023-03-05T07:58:07;3.40;;;2.67;;
14100;SDS011;7127;49.372;8.166;2023-03-05T08:00:34;3.23;;;2.80;;
14100;SDS011;7127;49.372;8.166;2023-03-05T08:03:01;3.83;;;2.67;;
14100;SDS011;7127;49.372;8.166;2023-03-05T08:05:30;3.47;;;2.73;;
14100;SDS011;7127;49.372;8.166;2023-03-05T08:07:57;3.70;;;2.47;;
14100;SDS011;7127;49.372;8.166;2023-03-05T08:10:23;2.67;;;2.37;;
14100;SDS011;7127;49.372;8.166;2023-03-05T08:12:51;3.43;;;2.47;;
14100;SDS011;7127;49.372;8.166;2023-03-05T08:15:18;4.53;;;3.10;;
14100;SDS011;7127;49.372;8.166;2023-03-05T08:17:45;3.60;;;2.50;;
14100;SDS011;7127;49.372;8.166;2023-03-05T08:20:12;4.53;;;2.70;;
14100;SDS011;7127;49.372;8.166;2023-03-05T08:22:40;3.00;;;2.10;;
14100;SDS011;7127;49.372;8.166;2023-03-05T08:25:07;4.50;;;2.53;;
14100;SDS011;7127;49.372;8.166;2023-03-05T08:27:36;3.90;;;2.97;;
14100;SDS011;7127;49.372;8.166;2023-03-05T08:30:04;2.97;;;2.07;;
14100;SDS011;7127;49.372;8.166;2023-03-05T08:32:32;3.70;;;2.40;;
14100;SDS011;7127;49.372;8.166;2023-03-05T08:34:59;7.87;;;2.80;;
14100;SDS011;7127;49.372;8.166;2023-03-05T08:37:27;4.27;;;3.00;;
14100;SDS011;7127;49.372;8.166;2023-03-05T08:39:55;4.10;;;3.00;;
14100;SDS011;7127;49.372;8.166;2023-03-05T08:42:22;2.87;;;2.57;;
14100;SDS011;7127;49.372;8.166;2023-03-05T08:44:50;3.17;;;2.50;;
14100;SDS011;7127;49.372;8.166;2023-03-05T08:47:16;3.27;;;2.43;;
14100;SDS011;7127;49.372;8.166;2023-03-05T08:49:44;5.07;;;3.00;;
14100;SDS011;7127;49.372;8.166;2023-03-05T08:52:11;4.20;;;3.00;;
14100;SDS011;7127;49.372;8.166;2023-03-05T08:54:38;4.43;;;3.00;;
14100;SDS011;7127;49.372;8.166;2023-03-05T08:57:07;3.57;;;2.80;;
14100;SDS011;7127;49.372;8.166;2023-03-05T08:59:33;4.50;;;2.70;;
14100;SDS011;7127;49.372;8.166;2023-03-05T09:02:00;4.13;;;2.90;;
14100;SDS011;7127;49.372;8.166;2023-03-05T09:04:27;3.10;;;2.80;;
14100;SDS011;7127;49.372;8.166;2023-03-05T09:06:55;3.53;;;2.67;;
14100;SDS011;7127;49.372;8.166;2023-03-05T09:09:22;4.77;;;3.30;;
14100;SDS011;7127;49.372;8.166;2023-03-05T09:11:49;3.83;;;2.67;;
14100;SDS011;7127;49.372;8.166;2023-03-05T09:14:18;4.47;;;2.87;;
14100;SDS011;7127;49.372;8.166;2023-03-05T09:16:58;4.37;;;2.83;;
14100;SDS011;7127;49.372;8.166;2023-03-05T09:19:26;4.27;;;2.80;;
14100;SDS011;7127;49.372;8.166;2023-03-05T09:21:53;3.77;;;2.83;;
14100;SDS011;7127;49.372;8.166;2023-03-05T09:24:20;3.17;;;2.50;;
14100;SDS011;7127;49.372;8.166;2023-03-05T09:26:47;3.77;;;2.63;;
14100;SDS011;7127;49.372;8.166;2023-03-05T09:29:14;4.13;;;3.10;;
14100;SDS011;7127;49.372;8.166;2023-03-05T09:31:44;4.13;;;3.07;;
14100;SDS011;7127;49.372;8.166;2023-03-05T09:34:15;2.97;;;2.67;;
14100;SDS011;7127;49.372;8.166;2023-03-05T09:36:42;4.63;;;2.93;;
14100;SDS011;7127;49.372;8.166;2023-03-05T09:39:09;3.83;;;2.87;;
14100;SDS011;7127;49.372;8.166;2023-03-05T09:41:41;4.40;;;2.93;;
14100;SDS011;7127;49.372;8.166;2023-03-05T09:44:26;2.73;;;2.30;;
14100;SDS011;7127;49.372;8.166;2023-03-05T09:47:06;4.00;;;2.70;;
14100;SDS011;7127;49.372;8.166;2023-03-05T09:49:44;3.03;;;2.40;;
14100;SDS011;7127;49.372;8.166;2023-03-05T09:52:17;4.50;;;2.60;;
14100;SDS011;7127;49.372;8.166;2023-03-05T09:54:48;2.63;;;2.23;;
14100;SDS011;7127;49.372;8.166;2023-03-05T09:57:21;2.90;;;2.40;;
14100;SDS011;7127;49.372;8.166;2023-03-05T09:59:52;3.30;;;2.27;;
14100;SDS011;7127;49.372;8.166;2023-03-05T10:02:25;2.63;;;2.10;;
14100;SDS011;7127;49.372;8.166;2023-03-05T10:04:57;3.93;;;2.40;;
14100;SDS011;7127;49.372;8.166;2023-03-05T10:07:29;3.40;;;2.63;;
14100;SDS011;7127;49.372;8.166;2023-03-05T10:09:58;3.07;;;2.20;;
14100;SDS011;7127;49.372;8.166;2023-03-05T10:12:35;2.40;;;1.90;;
14100;SDS011;7127;49.372;8.166;2023-03-05T10:15:08;2.70;;;2.00;;
14100;SDS011;7127;49.372;8.166;2023-03-05T10:17:43;2.47;;;1.70;;
14100;SDS011;7127;49.372;8.166;2023-03-05T10:23:14;2.70;;;1.77;;
14100;SDS011;7127;49.372;8.166;2023-03-05T10:25:53;2.50;;;1.87;;
14100;SDS011;7127;49.372;8.166;2023-03-05T10:28:28;2.60;;;1.97;;
14100;SDS011;7127;49.372;8.166;2023-03-05T10:31:10;2.20;;;1.70;;
14100;SDS011;7127;49.372;8.166;2023-03-05T10:33:58;2.30;;;1.60;;
14100;SDS011;7127;49.372;8.166;2023-03-05T10:36:51;3.00;;;1.97;;
14100;SDS011;7127;49.372;8.166;2023-03-05T10:39:41;2.47;;;1.67;;
14100;SDS011;7127;49.372;8.166;2023-03-05T10:42:19;1.97;;;1.63;;
14100;SDS011;7127;49.372;8.166;2023-03-05T10:44:51;1.93;;;1.70;;
14100;SDS011;7127;49.372;8.166;2023-03-05T10:47:21;2.00;;;1.57;;
14100;SDS011;7127;49.372;8.166;2023-03-05T10:49:54;1.87;;;1.53;;
14100;SDS011;7127;49.372;8.166;2023-03-05T10:52:24;2.30;;;1.77;;
14100;SDS011;7127;49.372;8.166;2023-03-05T10:54:56;2.47;;;1.67;;
14100;SDS011;7127;49.372;8.166;2023-03-05T10:57:23;2.03;;;1.70;;
14100;SDS011;7127;49.372;8.166;2023-03-05T10:59:52;4.23;;;1.90;;
14100;SDS011;7127;49.372;8.166;2023-03-05T11:02:21;1.60;;;1.37;;
14100;SDS011;7127;49.372;8.166;2023-03-05T11:04:48;1.90;;;1.40;;
14100;SDS011;7127;49.372;8.166;2023-03-05T11:07:36;1.57;;;1.47;;
14100;SDS011;7127;49.372;8.166;2023-03-05T11:10:13;1.40;;;1.20;;
14100;SDS011;7127;49.372;8.166;2023-03-05T11:12:45;1.63;;;1.40;;
14100;SDS011;7127;49.372;8.166;2023-03-05T11:15:22;1.53;;;1.03;;
14100;SDS011;7127;49.372;8.166;2023-03-05T11:20:48;1.93;;;1.20;;
14100;SDS011;7127;49.372;8.166;2023-03-05T11:23:17;1.40;;;1.17;;
14100;SDS011;7127;49.372;8.166;2023-03-05T11:25:55;1.20;;;1.00;;
14100;SDS011;7127;49.372;8.166;2023-03-05T11:28:26;1.90;;;1.30;;
14100;SDS011;7127;49.372;8.166;2023-03-05T11:30:56;1.10;;;1.00;;
14100;SDS011;7127;49.372;8.166;2023-03-05T11:33:26;1.20;;;1.10;;
14100;SDS011;7127;49.372;8.166;2023-03-05T11:36:09;3.73;;;2.80;;
14100;SDS011;7127;49.372;8.166;2023-03-05T11:38:49;4.37;;;2.97;;
14100;SDS011;7127;49.372;8.166;2023-03-05T11:41:17;2.37;;;1.90;;
14100;SDS011;7127;49.372;8.166;2023-03-05T11:43:49;2.03;;;1.60;;
14100;SDS011;7127;49.372;8.166;2023-03-05T11:46:18;2.73;;;1.50;;
14100;SDS011;7127;49.372;8.166;2023-03-05T11:48:46;1.37;;;1.17;;
14100;SDS011;7127;49.372;8.166;2023-03-05T11:51:15;1.53;;;1.20;;
14100;SDS011;7127;49.372;8.166;2023-03-05T11:53:49;2.20;;;1.43;;
14100;SDS011;7127;49.372;8.166;2023-03-05T11:56:23;1.43;;;1.20;;
14100;SDS011;7127;49.372;8.166;2023-03-05T11:58:53;2.20;;;1.20;;
14100;SDS011;7127;49.372;8.166;2023-03-05T12:01:26;1.33;;;1.10;;
14100;SDS011;7127;49.372;8.166;2023-03-05T12:03:54;1.83;;;1.30;;
14100;SDS011;7127;49.372;8.166;2023-03-05T12:06:23;0.90;;;0.90;;
14100;SDS011;7127;49.372;8.166;2023-03-05T12:08:56;1.27;;;1.17;;
14100;SDS011;7127;49.372;8.166;2023-03-05T12:11:28;1.60;;;1.30;;
14100;SDS011;7127;49.372;8.166;2023-03-05T12:13:56;1.17;;;1.07;;
14100;SDS011;7127;49.372;8.166;2023-03-05T12:16:30;1.80;;;1.10;;
14100;SDS011;7127;49.372;8.166;2023-03-05T12:19:12;1.10;;;1.00;;
14100;SDS011;7127;49.372;8.166;2023-03-05T12:22:14;1.10;;;1.00;;
14100;SDS011;7127;49.372;8.166;2023-03-05T12:24:44;0.90;;;0.90;;
14100;SDS011;7127;49.372;8.166;2023-03-05T12:27:12;1.03;;;0.90;;
14100;SDS011;7127;49.372;8.166;2023-03-05T12:29:45;0.83;;;0.83;;
14100;SDS011;7127;49.372;8.166;2023-03-05T12:35:34;1.10;;;1.00;;
14100;SDS011;7127;49.372;8.166;2023-03-05T12:44:18;4.10;;;2.27;;
14100;SDS011;7127;49.372;8.166;2023-03-05T12:49:44;5.20;;;3.03;;
14100;SDS011;7127;49.372;8.166;2023-03-05T12:52:16;5.47;;;3.57;;
14100;SDS011;7127;49.372;8.166;2023-03-05T12:55:02;5.27;;;3.50;;
14100;SDS011;7127;49.372;8.166;2023-03-05T12:57:43;4.50;;;2.43;;
14100;SDS011;7127;49.372;8.166;2023-03-05T13:00:13;4.30;;;2.93;;
14100;SDS011;7127;49.372;8.166;2023-03-05T13:02:45;9.63;;;5.63;;
14100;SDS011;7127;49.372;8.166;2023-03-05T13:05:17;11.97;;;6.90;;
14100;SDS011;7127;49.372;8.166;2023-03-05T13:07:46;8.23;;;5.90;;
14100;SDS011;7127;49.372;8.166;2023-03-05T13:10:20;5.27;;;3.50;;
14100;SDS011;7127;49.372;8.166;2023-03-05T13:12:50;3.63;;;2.80;;
14100;SDS011;7127;49.372;8.166;2023-03-05T13:15:18;2.70;;;2.03;;
14100;SDS011;7127;49.372;8.166;2023-03-05T13:17:53;1.50;;;1.40;;
14100;SDS011;7127;49.372;8.166;2023-03-05T13:20:23;1.70;;;1.40;;
14100;SDS011;7127;49.372;8.166;2023-03-05T13:25:56;1.37;;;1.27;;
14100;SDS011;7127;49.372;8.166;2023-03-05T13:28:26;0.87;;;0.80;;
14100;SDS011;7127;49.372;8.166;2023-03-05T13:30:56;1.27;;;1.17;;
14100;SDS011;7127;49.372;8.166;2023-03-05T13:33:25;1.00;;;0.97;;
14100;SDS011;7127;49.372;8.166;2023-03-05T13:35:54;1.33;;;1.03;;
14100;SDS011;7127;49.372;8.166;2023-03-05T13:38:23;1.33;;;1.10;;
14100;SDS011;7127;49.372;8.166;2023-03-05T13:41:00;0.90;;;0.90;;
14100;SDS011;7127;49.372;8.166;2023-03-05T13:43:33;1.10;;;1.00;;
14100;SDS011;7127;49.372;8.166;2023-03-05T13:46:06;0.87;;;0.87;;
14100;SDS011;7127;49.372;8.166;2023-03-05T13:48:33;1.70;;;1.10;;
14100;SDS011;7127;49.372;8.166;2023-03-05T13:51:00;2.40;;;1.17;;
14100;SDS011;7127;49.372;8.166;2023-03-05T13:53:31;3.03;;;1.90;;
14100;SDS011;7127;49.372;8.166;2023-03-05T13:55:59;1.70;;;1.60;;
14100;SDS011;7127;49.372;8.166;2023-03-05T13:58:41;1.57;;;1.47;;
14100;SDS011;7127;49.372;8.166;2023-03-05T14:01:12;1.90;;;1.40;;
14100;SDS011;7127;49.372;8.166;2023-03-05T14:03:41;1.57;;;1.10;;
14100;SDS011;7127;49.372;8.166;2023-03-05T14:06:08;1.63;;;1.17;;
14100;SDS011;7127;49.372;8.166;2023-03-05T14:08:36;1.27;;;1.03;;
14100;SDS011;7127;49.372;8.166;2023-03-05T14:11:11;1.60;;;1.10;;
14100;SDS011;7127;49.372;8.166;2023-03-05T14:13:38;1.60;;;1.40;;
14100;SDS011;7127;49.372;8.166;2023-03-05T14:16:07;2.17;;;1.20;;
14100;SDS011;7127;49.372;8.166;2023-03-05T14:18:36;1.40;;;1.30;;
14100;SDS011;7127;49.372;8.166;2023-03-05T14:21:04;1.37;;;1.27;;
14100;SDS011;7127;49.372;8.166;2023-03-05T14:23:35;2.00;;;1.37;;
14100;SDS011;7127;49.372;8.166;2023-03-05T14:26:16;1.50;;;1.40;;
14100;SDS011;7127;49.372;8.166;2023-03-05T14:28:52;1.53;;;1.07;;
14100;SDS011;7127;49.372;8.166;2023-03-05T14:31:22;1.63;;;1.33;;
14100;SDS011;7127;49.372;8.166;2023-03-05T14:33:51;1.77;;;1.67;;
14100;SDS011;7127;49.372;8.166;2023-03-05T14:36:19;1.50;;;1.20;;
14100;SDS011;7127;49.372;8.166;2023-03-05T14:38:49;1.33;;;1.20;;
14100;SDS011;7127;49.372;8.166;2023-03-05T14:41:17;1.40;;;1.30;;
14100;SDS011;7127;49.372;8.166;2023-03-05T14:43:46;1.53;;;1.10;;
14100;SDS011;7127;49.372;8.166;2023-03-05T14:46:15;1.40;;;1.30;;
14100;SDS011;7127;49.372;8.166;2023-03-05T14:48:43;2.27;;;1.40;;
14100;SDS011;7127;49.372;8.166;2023-03-05T14:51:11;1.63;;;1.10;;
14100;SDS011;7127;49.372;8.166;2023-03-05T14:53:38;1.30;;;1.20;;
14100;SDS011;7127;49.372;8.166;2023-03-05T14:56:14;2.50;;;1.50;;
14100;SDS011;7127;49.372;8.166;2023-03-05T14:58:43;1.40;;;1.30;;
14100;SDS011;7127;49.372;8.166;2023-03-05T15:01:10;1.97;;;1.60;;
14100;SDS011;7127;49.372;8.166;2023-03-05T15:03:38;1.50;;;1.40;;
14100;SDS011;7127;49.372;8.166;2023-03-05T15:06:16;1.30;;;1.20;;
14100;SDS011;7127;49.372;8.166;2023-03-05T15:08:45;1.40;;;1.30;;
14100;SDS011;7127;49.372;8.166;2023-03-05T15:11:12;1.60;;;1.50;;
14100;SDS011;7127;49.372;8.166;2023-03-05T15:13:39;1.33;;;1.23;;
14100;SDS011;7127;49.372;8.166;2023-03-05T15:16:06;1.00;;;1.00;;
14100;SDS011;7127;49.372;8.166;2023-03-05T15:18:38;1.40;;;1.20;;
14100;SDS011;7127;49.372;8.166;2023-03-05T15:21:05;1.50;;;1.40;;
14100;SDS011;7127;49.372;8.166;2023-03-05T15:23:32;1.53;;;1.40;;
14100;SDS011;7127;49.372;8.166;2023-03-05T15:26:00;1.50;;;1.40;;
14100;SDS011;7127;49.372;8.166;2023-03-05T15:28:30;1.20;;;1.10;;
14100;SDS011;7127;49.372;8.166;2023-03-05T15:30:58;1.40;;;1.30;;
14100;SDS011;7127;49.372;8.166;2023-03-05T15:33:25;2.37;;;1.47;;